Time;durP1;ratioP1;P1;durP2;ratioP2;P2;SDS_P1;SDS_P2;PMS_P1;PMS_P2;Temp;Humidity;BMP_temperature;BMP_pressure;BME280_temperature;BME280_humidity;BME280_pressure;Samples;Min_cycle;Max_cycle;Signal;HPM_P1;HPM_P2
2022/09/25 00:00:26;;;;;;;7.85;3.15;;;;;;;11.98;88.85;101418.28;4951685;28;20039;-48
2022/09/25 00:02:51;;;;;;;13.07;2.90;;;;;;;12.00;88.43;101427.03;4953960;28;20035;-48
2022/09/25 00:05:17;;;;;;;10.82;3.47;;;;;;;11.99;88.40;101435.13;4953857;28;20043;-47
2022/09/25 00:07:42;;;;;;;8.38;3.00;;;;;;;11.97;88.03;101432.56;4968229;28;20038;-47
2022/09/25 00:10:08;;;;;;;9.45;3.22;;;;;;;11.98;88.46;101431.59;4990935;28;20423;-47
2022/09/25 00:12:34;;;;;;;10.82;4.07;;;;;;;11.96;88.49;101445.97;4973657;28;20034;-46
2022/09/25 00:15:00;;;;;;;8.55;3.28;;;;;;;11.90;87.95;101447.19;4956140;28;20449;-50
2022/09/25 00:17:26;;;;;;;9.32;3.20;;;;;;;11.88;88.72;101442.88;4992107;28;20030;-47
2022/09/25 00:19:52;;;;;;;11.70;3.60;;;;;;;11.89;87.98;101447.28;4991244;28;20555;-46
2022/09/25 00:22:19;;;;;;;14.35;3.50;;;;;;;11.85;88.69;101445.69;4991801;28;20065;-47
2022/09/25 00:24:44;;;;;;;8.95;3.30;;;;;;;11.86;88.19;101443.00;4991410;28;20034;-49
2022/09/25 00:27:10;;;;;;;10.48;3.13;;;;;;;11.79;88.53;101457.56;4992489;28;20166;-47
2022/09/25 00:29:38;;;;;;;10.40;3.08;;;;;;;11.76;89.07;101444.44;4977400;28;20118;-46
2022/09/25 00:32:05;;;;;;;13.30;3.20;;;;;;;11.76;88.96;101441.75;4973393;28;20023;-47
2022/09/25 00:34:31;;;;;;;10.55;3.70;;;;;;;11.74;89.27;101441.00;4982052;28;20105;-47
2022/09/25 00:36:56;;;;;;;11.05;3.22;;;;;;;11.74;88.91;101444.53;4991501;28;20101;-47
2022/09/25 00:39:21;;;;;;;12.27;3.33;;;;;;;11.74;89.50;101444.53;4991726;28;20029;-47
2022/09/25 00:41:47;;;;;;;10.77;3.60;;;;;;;11.69;88.95;101440.41;4990566;28;20034;-47
2022/09/25 00:44:59;;;;;;;9.73;3.47;;;;;;;11.70;89.13;101450.13;4991872;28;20034;-49
2022/09/25 00:47:43;;;;;;;11.95;3.60;;;;;;;11.68;89.54;101444.03;4960759;28;20041;-48
2022/09/25 00:50:42;;;;;;;8.85;3.30;;;;;;;11.71;89.38;101439.38;4990292;28;20049;-48
2022/09/25 00:53:13;;;;;;;11.57;3.47;;;;;;;11.70;89.64;101432.31;4975007;28;20058;-46
2022/09/25 00:55:42;;;;;;;10.57;3.53;;;;;;;11.72;89.03;101440.25;4980770;28;20031;-48
2022/09/25 00:58:31;;;;;;;11.20;3.93;;;;;;;11.69;88.96;101438.59;4989942;28;20744;-46
2022/09/25 01:00:57;;;;;;;9.43;3.05;;;;;;;11.65;88.92;101438.84;4990912;28;20030;-48
2022/09/25 01:03:23;;;;;;;10.75;3.75;;;;;;;11.68;89.20;101446.72;4991362;28;20110;-48
2022/09/25 01:05:49;;;;;;;14.25;3.88;;;;;;;11.68;89.08;101449.38;4999484;28;20512;-47
2022/09/25 01:08:18;;;;;;;8.65;3.28;;;;;;;11.59;89.25;101454.28;5009595;28;20049;-47
2022/09/25 01:10:44;;;;;;;;;;;;;;;11.68;88.69;101452.88;4976212;28;20113;-47
2022/09/25 01:13:12;;;;;;;10.15;3.22;;;;;;;11.59;89.08;101450.75;4990865;28;19992;-49
2022/09/25 01:15:56;;;;;;;6.78;3.15;;;;;;;11.62;89.03;101453.25;4996047;28;20027;-47
2022/09/25 01:18:44;;;;;;;12.10;3.40;;;;;;;11.66;88.97;101457.44;4989145;28;20030;-49
2022/09/25 01:21:10;;;;;;;11.02;3.45;;;;;;;11.62;88.56;101452.38;4990693;28;20049;-47
2022/09/25 01:24:00;;;;;;;12.18;3.72;;;;;;;11.59;88.47;101453.44;4991818;28;20042;-47
2022/09/25 01:27:18;;;;;;;8.50;3.33;;;;;;;11.55;88.54;101450.06;4990832;28;20043;-47
2022/09/25 01:29:57;;;;;;;8.73;3.20;;;;;;;11.55;88.32;101458.03;4973207;28;20026;-49
2022/09/25 01:32:34;;;;;;;8.93;3.00;;;;;;;11.46;88.09;101445.25;4990557;28;20038;-50
2022/09/25 01:35:11;;;;;;;8.75;3.10;;;;;;;11.50;88.02;101461.91;4971326;28;20320;-48
2022/09/25 01:37:43;;;;;;;8.82;3.00;;;;;;;11.43;88.20;101455.22;4991256;28;20061;-47
2022/09/25 01:40:40;;;;;;;7.65;2.80;;;;;;;11.44;88.10;101459.59;4999580;28;20104;-52
2022/09/25 01:43:13;;;;;;;11.30;3.03;;;;;;;11.30;88.29;101463.94;4989450;28;20070;-48
2022/09/25 01:45:49;;;;;;;9.63;3.30;;;;;;;11.31;88.56;101456.78;4968368;28;20477;-48
2022/09/25 01:48:18;;;;;;;15.40;3.17;;;;;;;11.26;88.91;101467.69;4980078;28;20042;-49
2022/09/25 01:51:03;;;;;;;9.93;4.15;;;;;;;11.24;88.86;101471.41;4993461;28;20038;-46
2022/09/25 01:53:38;;;;;;;9.43;3.13;;;;;;;11.24;89.45;101471.41;4989989;28;20448;-48
2022/09/25 01:56:10;;;;;;;14.20;3.25;;;;;;;11.20;88.70;101472.50;4979325;28;20047;-48
2022/09/25 01:58:41;;;;;;;6.25;3.15;;;;;;;11.12;88.60;101464.97;4972685;28;20029;-49
2022/09/25 02:01:13;;;;;;;8.88;3.20;;;;;;;11.08;88.85;101464.25;4993834;28;20034;-50
2022/09/25 02:03:50;;;;;;;7.25;3.50;;;;;;;11.05;89.03;101460.91;4990108;28;20061;-49
2022/09/25 02:06:19;;;;;;;7.53;3.17;;;;;;;11.08;88.49;101466.06;4988225;28;20027;-47
2022/09/25 02:08:54;;;;;;;7.18;2.65;;;;;;;11.12;88.75;101463.16;4970740;28;20501;-47
2022/09/25 02:11:20;;;;;;;7.30;3.22;;;;;;;11.05;88.10;101461.75;4989578;28;20500;-48
2022/09/25 02:13:53;;;;;;;7.70;3.03;;;;;;;11.05;88.17;101464.41;4998450;28;20022;-46
2022/09/25 02:16:25;;;;;;;8.93;3.03;;;;;;;11.07;88.24;101465.19;4978914;28;20397;-47
2022/09/25 02:22:06;;;;;;;9.75;2.85;;;;;;;11.10;87.65;101461.50;4990265;28;20046;-48
2022/09/25 02:24:38;;;;;;;4.78;2.72;;;;;;;11.06;87.33;101455.50;4992492;28;20396;-47
2022/09/25 02:27:04;;;;;;;10.32;3.50;;;;;;;11.05;86.72;101458.22;5010368;28;20044;-48
2022/09/25 02:29:33;;;;;;;6.40;3.05;;;;;;;11.00;86.81;101458.50;4991668;28;20038;-48
2022/09/25 02:32:08;;;;;;;8.00;2.92;;;;;;;10.87;87.23;101457.44;5009856;28;20112;-47
2022/09/25 02:34:35;;;;;;;8.82;3.10;;;;;;;10.92;87.14;101471.38;4980645;28;20030;-48
2022/09/25 02:37:01;;;;;;;9.95;2.97;;;;;;;10.86;86.71;101459.25;4989678;28;20435;-47
2022/09/25 02:39:30;;;;;;;10.82;3.30;;;;;;;10.90;86.28;101466.13;4989972;28;20033;-49
2022/09/25 02:41:55;;;;;;;5.97;3.17;;;;;;;10.83;86.85;101463.88;4988692;28;20037;-48
2022/09/25 02:44:48;;;;;;;9.52;3.45;;;;;;;10.82;86.84;101470.13;4990149;28;20400;-48
2022/09/25 02:47:38;;;;;;;9.45;3.25;;;;;;;10.77;86.72;101469.53;4989322;28;20027;-47
2022/09/25 02:50:24;;;;;;;8.98;3.15;;;;;;;10.76;86.85;101458.03;4989592;28;20041;-47
2022/09/25 02:53:08;;;;;;;6.80;2.95;;;;;;;10.82;86.98;101472.78;4977803;28;20103;-47
2022/09/25 02:55:43;;;;;;;9.13;3.50;;;;;;;10.83;86.94;101463.88;4972240;28;20041;-47
2022/09/25 02:58:17;;;;;;;8.75;3.78;;;;;;;10.76;86.69;101459.81;4989520;28;20560;-48
2022/09/25 03:00:46;;;;;;;10.13;3.45;;;;;;;10.68;87.05;101450.47;4989151;28;20534;-48
2022/09/25 03:03:16;;;;;;;6.35;3.85;;;;;;;10.67;86.81;101442.56;4988340;28;20037;-48
2022/09/25 03:05:41;;;;;;;10.45;3.50;;;;;;;10.63;87.17;101447.19;4989640;28;20485;-49
2022/09/25 03:10:52;;;;;;;7.68;3.70;;;;;;;10.60;86.61;101450.00;4988690;28;20401;-47
2022/09/25 03:13:18;;;;;;;8.65;3.67;;;;;;;10.57;86.64;101457.31;4989124;28;20038;-47
2022/09/25 03:15:51;;;;;;;7.80;3.38;;;;;;;10.54;86.75;101454.81;4995520;28;20030;-48
2022/09/25 03:18:17;;;;;;;9.57;3.90;;;;;;;10.52;86.73;101451.38;4989598;28;20097;-47
2022/09/25 03:20:43;;;;;;;11.35;3.60;;;;;;;10.40;86.37;101448.41;4988702;28;20031;-48
2022/09/25 03:23:10;;;;;;;6.43;3.30;;;;;;;10.35;86.55;101449.59;4970608;28;20038;-48
2022/09/25 03:25:36;;;;;;;9.38;3.75;;;;;;;10.43;86.95;101458.03;4989863;28;20071;-47
2022/09/25 03:28:05;;;;;;;6.50;3.55;;;;;;;10.29;86.64;101457.88;4988766;28;20080;-47
2022/09/25 03:30:30;;;;;;;9.05;3.65;;;;;;;10.34;86.47;101454.06;4988777;28;20038;-49
2022/09/25 03:32:56;;;;;;;7.60;3.22;;;;;;;10.35;87.20;101460.22;4980287;28;20038;-51
2022/09/25 03:35:22;;;;;;;6.57;3.63;;;;;;;10.33;87.11;101460.31;4948621;28;20125;-47
2022/09/25 03:37:47;;;;;;;4.20;3.45;;;;;;;10.34;86.76;101463.84;4987385;28;20496;-47
2022/09/25 03:40:15;;;;;;;9.07;3.78;;;;;;;10.21;86.50;101450.28;4988856;28;20113;-47
2022/09/25 03:42:42;;;;;;;7.80;3.88;;;;;;;10.21;86.58;101464.44;4971206;28;20045;-48
2022/09/25 03:45:10;;;;;;;9.30;3.90;;;;;;;10.10;86.91;101456.16;4989129;28;20369;-47
2022/09/25 03:47:36;;;;;;;9.68;5.20;;;;;;;10.15;87.17;101454.13;4997304;28;20091;-46
2022/09/25 03:50:01;;;;;;;10.85;4.35;;;;;;;10.16;87.42;101447.84;4990890;28;20038;-47
2022/09/25 03:52:26;;;;;;;10.55;4.78;;;;;;;10.14;87.04;101457.69;4955797;28;20533;-46
2022/09/25 03:54:52;;;;;;;7.93;4.53;;;;;;;10.04;87.18;101461.78;4987791;28;20044;-47
2022/09/25 03:57:17;;;;;;;6.57;4.40;;;;;;;10.07;86.77;101460.78;4988544;28;20034;-46
2022/09/25 03:59:42;;;;;;;7.97;4.90;;;;;;;10.09;86.28;101458.88;4986443;28;20054;-49
2022/09/25 04:02:09;;;;;;;6.80;4.45;;;;;;;9.99;86.70;101458.50;4956243;28;20506;-46
2022/09/25 04:04:36;;;;;;;5.65;4.63;;;;;;;9.92;86.75;101459.75;5002327;28;20031;-47
2022/09/25 04:07:02;;;;;;;10.60;4.85;;;;;;;9.99;86.31;101462.00;4987472;28;20035;-46
2022/09/25 04:09:27;;;;;;;11.07;5.50;;;;;;;9.92;86.03;101460.59;4988272;28;20034;-48
2022/09/25 04:11:55;;;;;;;10.10;5.03;;;;;;;10.00;85.90;101457.56;5001328;28;20171;-48
2022/09/25 04:14:20;;;;;;;9.15;5.07;;;;;;;9.91;86.23;101461.56;4992140;28;20121;-46
2022/09/25 04:16:48;;;;;;;13.75;6.07;;;;;;;9.88;85.77;101456.41;4987903;28;20141;-48
2022/09/25 04:19:14;;;;;;;11.63;5.82;;;;;;;9.89;85.90;101454.59;4988374;28;20034;-47
2022/09/25 04:21:40;;;;;;;13.77;6.72;;;;;;;9.89;86.38;101449.28;4979170;28;20485;-48
2022/09/25 04:26:52;;;;;;;10.25;6.80;;;;;;;9.80;86.15;101455.06;4969940;28;20452;-48
2022/09/25 04:29:18;;;;;;;14.23;7.53;;;;;;;9.85;86.92;101447.69;4961261;28;20049;-47
2022/09/25 04:33:44;;;;;;;11.00;7.15;;;;;;;9.83;86.46;101452.25;4989352;28;20034;-47
2022/09/25 04:34:29;;;;;;;11.00;7.03;;;;;;;9.76;86.91;101447.25;4989828;28;20511;-49
2022/09/25 04:36:56;;;;;;;12.50;8.07;;;;;;;9.79;85.86;101454.19;4973473;28;20030;-46
2022/09/25 04:39:22;;;;;;;12.32;7.35;;;;;;;9.67;86.32;101446.81;4991177;28;20034;-47
2022/09/25 04:41:50;;;;;;;11.95;8.07;;;;;;;9.73;85.64;101463.31;4956881;28;20532;-49
2022/09/25 04:44:16;;;;;;;11.05;8.40;;;;;;;9.72;86.40;101460.75;5009326;28;20416;-49
2022/09/25 04:46:42;;;;;;;10.57;8.13;;;;;;;9.62;86.21;101455.03;4992127;28;20528;-48
2022/09/25 04:49:07;;;;;;;11.85;7.03;;;;;;;9.64;86.04;101450.50;4973104;28;20035;-47
2022/09/25 04:51:33;;;;;;;14.35;7.95;;;;;;;9.54;86.30;101449.25;4972984;28;20528;-49
2022/09/25 04:53:58;;;;;;;10.20;7.53;;;;;;;9.56;86.29;101455.34;4991340;28;20042;-49
2022/09/25 04:56:24;;;;;;;11.43;7.20;;;;;;;9.57;86.66;101448.22;4973732;28;20085;-49
2022/09/25 04:58:50;;;;;;;23.20;8.88;;;;;;;9.49;86.39;101449.44;4991155;28;20030;-50
2022/09/25 05:01:18;;;;;;;10.88;7.93;;;;;;;9.50;85.65;101447.66;4991022;28;20125;-48
2022/09/25 05:03:47;;;;;;;12.52;8.30;;;;;;;9.44;86.43;101439.97;4991442;28;20041;-47
2022/09/25 05:06:15;;;;;;;12.52;8.73;;;;;;;9.50;86.27;101450.31;4985029;28;20039;-46
2022/09/25 05:08:41;;;;;;;11.13;8.52;;;;;;;9.47;85.42;101439.84;4960459;28;20039;-48
2022/09/25 05:11:07;;;;;;;9.35;7.45;;;;;;;9.47;85.89;101453.09;4970659;28;20041;-46
2022/09/25 05:13:33;;;;;;;12.55;8.00;;;;;;;9.41;85.44;101451.63;4971634;28;20138;-47
2022/09/25 05:15:58;;;;;;;12.27;7.95;;;;;;;9.43;85.48;101449.75;4973244;28;20030;-47
2022/09/25 05:18:24;;;;;;;15.02;8.13;;;;;;;9.41;84.99;101449.00;4971148;28;20033;-47
2022/09/25 05:20:52;;;;;;;13.35;8.40;;;;;;;9.38;85.33;101443.78;4971674;28;20038;-48
2022/09/25 05:23:17;;;;;;;13.05;8.25;;;;;;;9.38;85.47;101446.44;4972316;28;20038;-48
2022/09/25 05:25:43;;;;;;;11.77;7.95;;;;;;;9.40;85.24;101439.28;4972207;28;20031;-46
2022/09/25 05:28:09;;;;;;;12.80;8.52;;;;;;;9.29;85.60;101445.13;4970559;28;20559;-47
2022/09/25 05:30:37;;;;;;;12.32;8.98;;;;;;;9.24;86.18;101436.53;4971671;28;20038;-46
2022/09/25 05:33:03;;;;;;;15.30;9.25;;;;;;;9.29;86.11;101439.81;4971747;28;20033;-48
2022/09/25 05:35:31;;;;;;;12.32;8.43;;;;;;;9.24;85.70;101446.28;4972562;28;20027;-47
2022/09/25 05:37:57;;;;;;;12.35;9.13;;;;;;;9.20;86.42;101439.38;4971931;28;20102;-48
2022/09/25 05:40:23;;;;;;;11.23;8.18;;;;;;;9.16;86.28;101436.03;4970333;28;20121;-47
2022/09/25 05:42:49;;;;;;;14.00;8.60;;;;;;;9.17;85.74;101439.53;4970490;28;20100;-46
2022/09/25 05:45:16;;;;;;;12.23;8.70;;;;;;;9.17;85.99;101442.19;4969271;28;20077;-48
2022/09/25 05:47:43;;;;;;;13.27;8.13;;;;;;;9.07;85.70;101447.06;4969077;28;20061;-47
2022/09/25 05:50:11;;;;;;;11.20;8.70;;;;;;;9.09;85.99;101450.53;4970363;28;20129;-48
2022/09/25 05:52:39;;;;;;;11.88;9.00;;;;;;;9.14;85.61;101452.94;4970533;28;20015;-46
2022/09/25 05:55:06;;;;;;;12.60;8.13;;;;;;;9.08;85.87;101457.59;4971470;28;20450;-48
2022/09/25 05:57:34;;;;;;;13.77;8.55;;;;;;;9.13;86.27;101449.44;4969592;28;20031;-48
2022/09/25 06:00:00;;;;;;;13.30;9.68;;;;;;;9.14;86.20;101455.59;4991481;28;20031;-46
2022/09/25 06:02:26;;;;;;;13.02;9.38;;;;;;;9.15;85.76;101466.16;4972431;28;20030;-46
2022/09/25 06:04:52;;;;;;;12.30;8.75;;;;;;;9.06;86.47;101467.44;4990430;28;20041;-46
2022/09/25 06:07:19;;;;;;;14.43;8.88;;;;;;;9.15;86.30;101459.97;4994905;28;20501;-47
2022/09/25 06:09:45;;;;;;;10.35;9.23;;;;;;;9.18;86.27;101465.16;5010157;28;20058;-47
2022/09/25 06:12:11;;;;;;;11.18;8.85;;;;;;;9.15;86.51;101460.84;4991921;28;20046;-48
2022/09/25 06:14:37;;;;;;;10.57;9.13;;;;;;;9.21;86.27;101455.25;4972851;28;20445;-47
2022/09/25 06:17:03;;;;;;;14.63;9.25;;;;;;;9.21;86.58;101465.88;4989395;28;20532;-48
2022/09/25 06:19:28;;;;;;;11.45;9.38;;;;;;;9.10;87.26;101455.75;4971426;28;20764;-48
2022/09/25 06:21:56;;;;;;;28.95;9.80;;;;;;;9.13;87.33;101449.44;4971908;28;20042;-47
2022/09/25 06:24:22;;;;;;;11.27;9.18;;;;;;;9.23;87.57;101461.31;4971115;28;20026;-47
2022/09/25 06:26:47;;;;;;;12.48;9.68;;;;;;;9.20;87.67;101453.50;4993779;28;20489;-47
2022/09/25 06:29:12;;;;;;;11.93;9.38;;;;;;;9.22;88.00;101461.41;4988727;28;20361;-47
2022/09/25 06:31:38;;;;;;;11.98;9.73;;;;;;;9.26;88.51;101460.31;4997736;28;20117;-50
2022/09/25 06:34:04;;;;;;;12.43;10.43;;;;;;;9.27;88.88;101449.63;4955702;28;20445;-50
2022/09/25 06:36:30;;;;;;;13.70;10.23;;;;;;;9.29;89.38;101454.88;4971617;28;20026;-49
2022/09/25 06:38:56;;;;;;;15.98;10.35;;;;;;;9.37;89.13;101463.31;4986780;28;20018;-48
2022/09/25 06:41:21;;;;;;;13.00;10.20;;;;;;;9.37;89.55;101460.66;4989013;28;20139;-47
2022/09/25 06:43:51;;;;;;;12.20;9.98;;;;;;;9.39;90.31;101457.97;4987804;28;20031;-47
2022/09/25 06:46:18;;;;;;;12.77;9.75;;;;;;;9.50;90.25;101455.63;4969556;28;20018;-47
2022/09/25 06:48:49;;;;;;;12.05;10.20;;;;;;;9.51;90.38;101458.22;4988777;28;20065;-48
2022/09/25 06:51:16;;;;;;;13.68;10.52;;;;;;;9.58;90.96;101460.56;4989877;28;20026;-49
2022/09/25 06:53:44;;;;;;;13.68;10.48;;;;;;;9.57;91.26;101467.69;4989923;28;20078;-47
2022/09/25 06:56:10;;;;;;;12.25;10.00;;;;;;;9.66;91.78;101472.53;4988779;28;20046;-48
2022/09/25 06:58:36;;;;;;;15.20;11.63;;;;;;;9.68;91.39;101475.13;4989369;28;20102;-48
2022/09/25 07:01:01;;;;;;;14.20;10.40;;;;;;;9.75;92.36;101469.41;4972651;28;20030;-48
2022/09/25 07:03:46;;;;;;;14.48;10.48;;;;;;;9.75;92.75;101469.41;5004523;28;20030;-47
2022/09/25 07:06:13;;;;;;;13.70;11.10;;;;;;;9.84;92.94;101472.56;5002110;28;20058;-47
2022/09/25 07:08:38;;;;;;;15.55;11.73;;;;;;;9.70;93.60;101436.91;4988493;28;20107;-47
2022/09/25 07:11:05;;;;;;;16.92;11.55;;;;;;;9.95;93.74;101471.09;4989965;28;20026;-47
2022/09/25 07:13:34;;;;;;;13.98;10.35;;;;;;;9.97;93.98;101477.19;4989436;28;20019;-49
2022/09/25 07:16:02;;;;;;;16.10;10.48;;;;;;;10.05;94.56;101473.28;4972307;28;20034;-50
2022/09/25 07:18:32;;;;;;;19.35;11.55;;;;;;;10.04;94.87;101460.94;4988161;28;20022;-48
2022/09/25 07:21:06;;;;;;;16.63;11.32;;;;;;;10.12;95.33;101467.56;4986508;28;20167;-49
2022/09/25 07:23:32;;;;;;;15.88;10.63;;;;;;;10.16;95.50;101477.09;4966726;28;20103;-47
2022/09/25 07:26:13;;;;;;;14.38;10.75;;;;;;;10.24;95.55;101480.22;4989777;28;20176;-48
2022/09/25 07:28:42;;;;;;;14.95;11.07;;;;;;;10.31;96.01;101479.94;4996451;28;20042;-54
2022/09/25 07:31:16;;;;;;;12.68;9.85;;;;;;;10.38;95.62;101479.56;4971476;28;20034;-48
2022/09/25 07:33:46;;;;;;;13.93;10.52;;;;;;;10.51;96.05;101484.22;4988943;28;20397;-48
2022/09/25 07:36:12;;;;;;;14.27;10.37;;;;;;;10.55;95.29;101477.78;4989036;28;20026;-49
2022/09/25 07:38:38;;;;;;;16.85;10.30;;;;;;;10.64;95.28;101488.81;4990277;28;20030;-46
2022/09/25 07:41:05;;;;;;;13.65;9.52;;;;;;;10.69;95.77;101481.44;4982444;28;20057;-46
2022/09/25 07:43:32;;;;;;;12.35;9.98;;;;;;;10.79;95.16;101487.13;4979343;28;20034;-49
2022/09/25 07:45:58;;;;;;;13.45;9.32;;;;;;;10.88;94.65;101483.09;5003577;28;20057;-47
2022/09/25 07:48:25;;;;;;;14.35;9.05;;;;;;;10.98;94.50;101487.00;5003954;28;20023;-46
2022/09/25 07:50:51;;;;;;;10.43;8.57;;;;;;;11.06;94.01;101476.81;4990183;28;20042;-46
2022/09/25 07:53:19;;;;;;;12.73;8.98;;;;;;;11.19;93.50;101487.63;4972066;28;20030;-46
2022/09/25 07:55:49;;;;;;;10.73;7.78;;;;;;;11.27;92.59;101487.22;4978284;28;20613;-46
2022/09/25 07:58:14;;;;;;;14.23;8.95;;;;;;;11.37;92.37;101477.75;4971859;28;20034;-46
2022/09/25 08:00:40;;;;;;;11.07;7.65;;;;;;;11.48;91.99;101474.50;4989027;28;20027;-47
2022/09/25 08:03:07;;;;;;;9.85;7.50;;;;;;;11.62;91.08;101479.00;4972039;28;20026;-47
2022/09/25 08:05:33;;;;;;;10.05;7.82;;;;;;;11.74;90.48;101473.00;4969219;28;20099;-47
2022/09/25 08:07:58;;;;;;;12.63;7.22;;;;;;;11.85;90.27;101467.03;4988495;28;20050;-46
2022/09/25 08:10:24;;;;;;;10.60;6.93;;;;;;;11.96;88.18;101470.81;4993069;28;20026;-48
2022/09/25 08:12:50;;;;;;;9.80;5.97;;;;;;;12.14;88.95;101476.84;4974436;28;20121;-45
2022/09/25 08:15:19;;;;;;;8.43;6.78;;;;;;;12.31;88.29;101470.50;4990814;28;20039;-46
2022/09/25 08:17:44;;;;;;;9.53;6.30;;;;;;;12.48;87.93;101472.16;4974945;28;20030;-46
2022/09/25 08:20:10;;;;;;;9.68;6.07;;;;;;;12.63;86.52;101468.56;4992594;28;20382;-47
2022/09/25 08:22:36;;;;;;;7.65;5.35;;;;;;;12.77;85.65;101467.72;4992636;28;20032;-46
2022/09/25 08:25:02;;;;;;;7.18;5.47;;;;;;;12.93;85.39;101470.25;5002940;28;20057;-46
2022/09/25 08:27:28;;;;;;;10.40;5.72;;;;;;;13.05;85.39;101473.97;4978198;28;20030;-46
2022/09/25 08:29:53;;;;;;;7.68;5.75;;;;;;;13.27;85.25;101476.19;4997769;28;20110;-46
2022/09/25 08:32:19;;;;;;;8.63;4.55;;;;;;;13.43;84.29;101470.69;4991414;28;20062;-48
2022/09/25 08:34:45;;;;;;;9.38;4.03;;;;;;;13.64;82.02;101469.28;4975190;28;20453;-47
2022/09/25 08:37:14;;;;;;;13.18;4.15;;;;;;;13.79;81.27;101473.59;4991156;28;20045;-46
2022/09/25 08:39:40;;;;;;;6.30;3.10;;;;;;;13.90;81.16;101469.38;4976187;28;20485;-47
2022/09/25 08:42:09;;;;;;;6.28;3.30;;;;;;;14.11;80.80;101478.59;4992135;28;20105;-47
2022/09/25 08:44:34;;;;;;;8.50;3.42;;;;;;;14.25;77.79;101472.31;4991974;28;20030;-46
2022/09/25 08:50:08;;;;;;;4.55;2.28;;;;;;;14.54;76.22;101476.53;5006788;28;20045;-48
2022/09/25 08:52:40;;;;;;;7.30;3.28;;;;;;;14.60;75.77;101469.91;4993948;28;20030;-47
2022/09/25 08:55:15;;;;;;;6.18;2.80;;;;;;;14.71;75.80;101466.50;5011672;28;20026;-46
2022/09/25 08:57:44;;;;;;;7.80;2.83;;;;;;;14.86;74.28;101476.13;5006938;28;20028;-46
2022/09/25 09:00:19;;;;;;;6.70;2.40;;;;;;;14.93;74.25;101469.34;4958563;28;20362;-51
2022/09/25 09:02:56;;;;;;;7.63;2.42;;;;;;;15.11;73.58;101477.03;4970057;28;20030;-49
2022/09/25 09:05:39;;;;;;;9.32;2.25;;;;;;;15.30;73.99;101468.53;4982880;28;20038;-46
2022/09/25 09:08:09;;;;;;;8.15;2.08;;;;;;;15.52;72.59;101470.47;4976488;28;20061;-47
2022/09/25 09:10:45;;;;;;;8.20;2.65;;;;;;;15.67;72.31;101472.88;4993032;28;20563;-48
2022/09/25 09:13:17;;;;;;;6.15;2.90;;;;;;;15.96;70.59;101464.47;4991595;28;20026;-51
2022/09/25 09:15:50;;;;;;;7.30;2.50;;;;;;;15.94;69.65;101460.19;4991527;28;20030;-48
2022/09/25 09:18:21;;;;;;;6.00;1.98;;;;;;;16.04;68.92;101461.22;4992331;28;20071;-49
2022/09/25 09:20:53;;;;;;;5.72;2.15;;;;;;;15.84;69.35;101460.06;4973703;28;20015;-47
2022/09/25 09:23:30;;;;;;;6.75;2.20;;;;;;;15.99;68.38;101461.56;5010646;28;20029;-50
2022/09/25 09:26:04;;;;;;;4.70;1.98;;;;;;;16.13;66.48;101463.19;5007486;28;20124;-48
2022/09/25 09:28:57;;;;;;;5.60;2.35;;;;;;;16.26;69.69;101457.72;4954080;28;20428;-50
2022/09/25 09:31:34;;;;;;;9.70;2.50;;;;;;;16.39;68.64;101463.03;4977851;28;20057;-49
2022/09/25 09:34:37;;;;;;;5.65;2.30;;;;;;;16.67;69.10;101461.69;4990915;28;20113;-48
2022/09/25 09:37:13;;;;;;;6.22;2.65;;;;;;;16.73;68.22;101463.91;4973236;28;20050;-50
2022/09/25 09:40:00;;;;;;;8.63;2.50;;;;;;;16.58;65.80;101474.88;4990550;28;20031;-49
2022/09/25 09:42:46;;;;;;;5.57;2.17;;;;;;;16.51;66.69;101454.00;4991891;28;20030;-47
2022/09/25 09:45:18;;;;;;;7.00;1.83;;;;;;;16.37;67.42;101460.44;5002117;28;20394;-47
2022/09/25 09:48:11;;;;;;;6.90;2.10;;;;;;;16.52;68.58;101458.41;5007272;28;20106;-48
2022/09/25 09:50:53;;;;;;;4.65;1.80;;;;;;;16.77;66.40;101450.16;4984976;28;20026;-47
2022/09/25 09:53:36;;;;;;;5.32;1.70;;;;;;;17.02;66.28;101445.47;4990235;28;20122;-48
2022/09/25 09:56:09;;;;;;;5.38;1.85;;;;;;;17.14;63.13;101457.06;4990405;28;20442;-47
2022/09/25 09:58:46;;;;;;;5.30;1.67;;;;;;;17.36;61.35;101453.50;4989482;28;20031;-47
2022/09/25 10:01:14;;;;;;;5.20;1.70;;;;;;;17.46;59.52;101457.13;4995177;28;20396;-47
2022/09/25 10:03:41;;;;;;;4.18;1.60;;;;;;;17.72;57.45;101452.28;4997939;28;20023;-50
2022/09/25 10:06:13;;;;;;;5.90;1.80;;;;;;;18.07;58.13;101449.34;4972547;28;20045;-48
2022/09/25 10:08:40;;;;;;;10.30;2.15;;;;;;;18.16;57.42;101447.69;4989980;28;20042;-47
2022/09/25 10:11:16;;;;;;;8.63;1.92;;;;;;;18.30;57.42;101454.59;5005388;28;20105;-48
2022/09/25 10:13:43;;;;;;;6.97;1.63;;;;;;;18.57;56.63;101444.13;4994628;28;20109;-47
2022/09/25 10:16:13;;;;;;;5.15;1.60;;;;;;;18.65;55.55;101440.75;4978309;28;20441;-47
2022/09/25 10:19:05;;;;;;;5.60;1.73;;;;;;;18.42;56.44;101441.91;4985714;28;20108;-52
2022/09/25 10:21:44;;;;;;;6.22;1.67;;;;;;;17.87;56.71;101437.56;4978930;28;20038;-48
2022/09/25 10:24:51;;;;;;;9.20;1.75;;;;;;;17.57;59.22;101443.66;4989856;28;20018;-48
2022/09/25 10:27:31;;;;;;;6.57;1.70;;;;;;;17.17;57.76;101448.75;4982828;28;20030;-49
2022/09/25 10:30:23;;;;;;;6.32;1.50;;;;;;;17.03;59.14;101445.38;4991760;28;20050;-49
2022/09/25 10:33:12;;;;;;;4.50;1.60;;;;;;;16.92;59.57;101440.00;4989098;28;20042;-48
2022/09/25 10:35:37;;;;;;;7.63;1.90;;;;;;;17.36;58.71;101438.22;4977712;28;20377;-48
2022/09/25 10:38:04;;;;;;;5.35;1.50;;;;;;;17.66;57.09;101432.13;4990259;28;20025;-49
2022/09/25 10:40:34;;;;;;;6.13;1.95;;;;;;;18.31;56.12;101429.38;4984759;28;20032;-48
2022/09/25 10:43:22;;;;;;;3.75;1.38;;;;;;;18.63;54.90;101431.94;4996148;28;20030;-50
2022/09/25 10:45:52;;;;;;;3.78;1.20;;;;;;;18.67;54.53;101430.69;4976371;28;20056;-49
2022/09/25 10:51:19;;;;;;;7.05;1.42;;;;;;;18.79;54.46;101439.56;4989324;28;20053;-50
2022/09/25 10:53:47;;;;;;;5.07;1.73;;;;;;;18.55;52.21;101438.00;5010185;28;20036;-50
2022/09/25 10:56:31;;;;;;;5.68;1.67;;;;;;;18.13;53.66;101439.88;4981620;28;20026;-52
2022/09/25 10:59:01;;;;;;;2.78;1.35;;;;;;;17.88;52.86;101436.59;4984669;28;20023;-50
2022/09/25 11:01:39;;;;;;;;;;;;;;;18.04;57.53;101427.22;4989551;28;20117;-52
2022/09/25 11:04:15;;;;;;;5.32;1.45;;;;;;;18.48;56.60;101414.44;4976129;28;19959;-49
2022/09/25 11:06:48;;;;;;;4.57;1.40;;;;;;;19.33;50.87;101429.38;4953155;28;20027;-50
2022/09/25 11:09:22;;;;;;;4.15;1.20;;;;;;;20.14;47.85;101429.94;4988382;28;20054;-50
2022/09/25 11:11:51;;;;;;;3.45;1.20;;;;;;;20.29;46.05;101431.19;4990907;28;20485;-50
2022/09/25 11:14:34;;;;;;;3.75;1.10;;;;;;;20.84;47.97;101433.19;4972435;28;20080;-50
2022/09/25 11:17:04;;;;;;;3.88;1.13;;;;;;;21.61;44.75;101433.75;4989752;28;20045;-51
2022/09/25 11:19:31;;;;;;;5.88;1.48;;;;;;;22.27;42.71;101427.91;5004820;28;20033;-51
2022/09/25 11:21:56;;;;;;;6.28;1.27;;;;;;;22.97;41.26;101430.50;5009289;28;20396;-49
2022/09/25 11:24:49;;;;;;;3.67;1.23;;;;;;;23.26;41.10;101437.38;4991639;28;20022;-51
2022/09/25 11:27:30;;;;;;;4.65;1.40;;;;;;;22.98;39.73;101431.34;4991526;28;20034;-53
2022/09/25 11:30:11;;;;;;;4.75;1.13;;;;;;;23.38;43.54;101429.75;5007517;28;20030;-52
2022/09/25 11:32:51;;;;;;;6.97;1.20;;;;;;;24.13;37.56;101422.38;5009335;28;20052;-47
2022/09/25 11:35:46;;;;;;;4.30;1.17;;;;;;;24.42;37.14;101420.97;5008398;28;20032;-53
2022/09/25 11:41:48;;;;;;;6.38;1.08;;;;;;;25.72;36.68;101416.78;4989639;28;20083;-52
2022/09/25 11:44:44;;;;;;;3.33;1.00;;;;;;;26.07;36.77;101413.66;4982640;28;20121;-53
2022/09/25 11:47:23;;;;;;;2.58;1.10;;;;;;;24.08;35.90;101410.31;4998729;28;20036;-51
2022/09/25 11:49:57;;;;;;;4.43;1.50;;;;;;;22.92;38.77;101404.84;4998393;28;20349;-50
2022/09/25 11:52:39;;;;;;;3.08;1.10;;;;;;;22.71;40.39;101402.53;4975973;28;20026;-48
2022/09/25 11:55:36;;;;;;;2.22;1.13;;;;;;;23.85;37.60;101394.69;4971925;28;20037;-50
2022/09/25 11:58:32;;;;;;;3.72;1.20;;;;;;;25.06;37.19;101397.28;4997365;28;20398;-52
2022/09/25 12:01:23;;;;;;;3.90;1.50;;;;;;;25.75;35.10;101393.78;5008902;28;20041;-53